sensor_id;sensor_type;location;lat;lon;timestamp;temperature;humidity
16655;DHT22;8441;51.344;7.022;2023-03-14T00:00:53;10.00;99.90
16655;DHT22;8441;51.344;7.022;2023-03-14T00:03:20;10.10;99.90
16655;DHT22;8441;51.344;7.022;2023-03-14T00:05:47;10.10;99.90
16655;DHT22;8441;51.344;7.022;2023-03-14T00:08:14;10.10;99.90
16655;DHT22;8441;51.344;7.022;2023-03-14T00:10:42;10.00;99.90
16655;DHT22;8441;51.344;7.022;2023-03-14T00:13:09;10.00;99.90
16655;DHT22;8441;51.344;7.022;2023-03-14T00:15:38;9.90;99.90
16655;DHT22;8441;51.344;7.022;2023-03-14T00:18:05;9.90;99.90
16655;DHT22;8441;51.344;7.022;2023-03-14T00:20:32;9.90;99.90
16655;DHT22;8441;51.344;7.022;2023-03-14T00:22:59;10.00;99.90
16655;DHT22;8441;51.344;7.022;2023-03-14T00:25:28;10.00;99.90
16655;DHT22;8441;51.344;7.022;2023-03-14T00:27:55;10.00;99.90
16655;DHT22;8441;51.344;7.022;2023-03-14T00:30:22;10.00;99.90
16655;DHT22;8441;51.344;7.022;2023-03-14T00:32:51;10.00;99.90
16655;DHT22;8441;51.344;7.022;2023-03-14T00:35:18;10.00;99.90
16655;DHT22;8441;51.344;7.022;2023-03-14T00:37:45;10.00;99.90
16655;DHT22;8441;51.344;7.022;2023-03-14T00:40:13;10.10;99.90
16655;DHT22;8441;51.344;7.022;2023-03-14T00:42:40;10.20;99.90
16655;DHT22;8441;51.344;7.022;2023-03-14T00:45:08;10.20;99.90
16655;DHT22;8441;51.344;7.022;2023-03-14T00:47:35;10.30;99.90
16655;DHT22;8441;51.344;7.022;2023-03-14T00:50:05;10.30;99.90
16655;DHT22;8441;51.344;7.022;2023-03-14T00:52:33;10.40;99.90
16655;DHT22;8441;51.344;7.022;2023-03-14T00:55:00;10.30;99.90
16655;DHT22;8441;51.344;7.022;2023-03-14T00:57:27;10.10;99.90
16655;DHT22;8441;51.344;7.022;2023-03-14T00:59:54;9.80;99.90
16655;DHT22;8441;51.344;7.022;2023-03-14T01:02:21;9.50;99.90
16655;DHT22;8441;51.344;7.022;2023-03-14T01:04:49;9.40;99.90
16655;DHT22;8441;51.344;7.022;2023-03-14T01:07:17;9.20;99.90
16655;DHT22;8441;51.344;7.022;2023-03-14T01:09:45;9.10;99.90
16655;DHT22;8441;51.344;7.022;2023-03-14T01:12:12;9.10;99.90
16655;DHT22;8441;51.344;7.022;2023-03-14T01:14:39;9.10;99.90
16655;DHT22;8441;51.344;7.022;2023-03-14T01:17:06;9.10;99.90
16655;DHT22;8441;51.344;7.022;2023-03-14T01:19:34;9.10;99.90
16655;DHT22;8441;51.344;7.022;2023-03-14T01:22:01;9.00;99.90
16655;DHT22;8441;51.344;7.022;2023-03-14T01:24:29;9.00;99.90
16655;DHT22;8441;51.344;7.022;2023-03-14T01:26:56;9.00;99.90
16655;DHT22;8441;51.344;7.022;2023-03-14T01:29:25;9.00;99.90
16655;DHT22;8441;51.344;7.022;2023-03-14T01:31:52;8.90;99.90
16655;DHT22;8441;51.344;7.022;2023-03-14T01:34:19;8.90;99.90
16655;DHT22;8441;51.344;7.022;2023-03-14T01:36:46;8.90;99.90
16655;DHT22;8441;51.344;7.022;2023-03-14T01:39:13;8.90;99.90
16655;DHT22;8441;51.344;7.022;2023-03-14T01:41:42;8.90;99.90
16655;DHT22;8441;51.344;7.022;2023-03-14T01:44:10;8.80;99.90
16655;DHT22;8441;51.344;7.022;2023-03-14T01:46:39;8.80;99.90
16655;DHT22;8441;51.344;7.022;2023-03-14T01:49:20;8.80;99.90
16655;DHT22;8441;51.344;7.022;2023-03-14T01:51:51;8.80;99.90
16655;DHT22;8441;51.344;7.022;2023-03-14T01:54:23;8.80;99.90
16655;DHT22;8441;51.344;7.022;2023-03-14T01:56:56;8.70;99.90
16655;DHT22;8441;51.344;7.022;2023-03-14T01:59:24;8.80;99.90
16655;DHT22;8441;51.344;7.022;2023-03-14T02:01:52;8.80;99.90
16655;DHT22;8441;51.344;7.022;2023-03-14T02:04:21;8.70;99.90
16655;DHT22;8441;51.344;7.022;2023-03-14T02:07:00;8.70;99.90
16655;DHT22;8441;51.344;7.022;2023-03-14T02:09:30;8.70;99.90
16655;DHT22;8441;51.344;7.022;2023-03-14T02:11:59;8.70;99.90
16655;DHT22;8441;51.344;7.022;2023-03-14T02:14:30;8.70;99.90
16655;DHT22;8441;51.344;7.022;2023-03-14T02:16:59;8.70;99.90
16655;DHT22;8441;51.344;7.022;2023-03-14T02:19:36;8.70;99.90
16655;DHT22;8441;51.344;7.022;2023-03-14T02:22:09;8.80;99.90
16655;DHT22;8441;51.344;7.022;2023-03-14T02:24:43;8.80;99.90
16655;DHT22;8441;51.344;7.022;2023-03-14T02:27:14;8.80;99.90
16655;DHT22;8441;51.344;7.022;2023-03-14T02:29:48;8.80;99.90
16655;DHT22;8441;51.344;7.022;2023-03-14T02:32:16;8.80;99.90
16655;DHT22;8441;51.344;7.022;2023-03-14T02:34:49;8.80;99.90
16655;DHT22;8441;51.344;7.022;2023-03-14T02:37:19;8.80;99.90
16655;DHT22;8441;51.344;7.022;2023-03-14T02:39:48;8.80;99.90
16655;DHT22;8441;51.344;7.022;2023-03-14T02:42:17;8.90;99.90
16655;DHT22;8441;51.344;7.022;2023-03-14T02:44:52;8.90;99.90
16655;DHT22;8441;51.344;7.022;2023-03-14T02:47:27;8.90;99.90
16655;DHT22;8441;51.344;7.022;2023-03-14T02:50:01;8.90;99.90
16655;DHT22;8441;51.344;7.022;2023-03-14T02:52:28;8.80;99.90
16655;DHT22;8441;51.344;7.022;2023-03-14T02:54:56;8.80;99.90
16655;DHT22;8441;51.344;7.022;2023-03-14T02:57:24;8.80;99.90
16655;DHT22;8441;51.344;7.022;2023-03-14T02:59:52;8.80;99.90
16655;DHT22;8441;51.344;7.022;2023-03-14T03:02:19;8.80;99.90
16655;DHT22;8441;51.344;7.022;2023-03-14T03:04:46;8.80;99.90
16655;DHT22;8441;51.344;7.022;2023-03-14T03:07:13;8.80;99.90
16655;DHT22;8441;51.344;7.022;2023-03-14T03:09:41;8.80;99.90
16655;DHT22;8441;51.344;7.022;2023-03-14T03:12:08;8.80;99.90
16655;DHT22;8441;51.344;7.022;2023-03-14T03:14:36;8.80;99.90
16655;DHT22;8441;51.344;7.022;2023-03-14T03:17:04;8.80;99.90
16655;DHT22;8441;51.344;7.022;2023-03-14T03:19:31;8.80;99.90
16655;DHT22;8441;51.344;7.022;2023-03-14T03:21:59;8.80;99.90
16655;DHT22;8441;51.344;7.022;2023-03-14T03:24:26;8.80;99.90
16655;DHT22;8441;51.344;7.022;2023-03-14T03:26:53;8.80;99.90
16655;DHT22;8441;51.344;7.022;2023-03-14T03:29:21;8.80;99.90
16655;DHT22;8441;51.344;7.022;2023-03-14T03:31:49;8.80;99.90
16655;DHT22;8441;51.344;7.022;2023-03-14T03:34:17;8.80;99.90
16655;DHT22;8441;51.344;7.022;2023-03-14T03:36:44;8.90;99.90
16655;DHT22;8441;51.344;7.022;2023-03-14T03:39:11;8.90;99.90
16655;DHT22;8441;51.344;7.022;2023-03-14T03:41:38;8.80;99.90
16655;DHT22;8441;51.344;7.022;2023-03-14T03:44:05;8.80;99.90
16655;DHT22;8441;51.344;7.022;2023-03-14T03:46:33;8.80;99.90
16655;DHT22;8441;51.344;7.022;2023-03-14T03:49:01;8.80;99.90
16655;DHT22;8441;51.344;7.022;2023-03-14T03:51:28;8.80;99.90
16655;DHT22;8441;51.344;7.022;2023-03-14T03:53:56;8.70;99.90
16655;DHT22;8441;51.344;7.022;2023-03-14T03:56:23;8.70;99.90
16655;DHT22;8441;51.344;7.022;2023-03-14T03:58:50;8.70;99.90
16655;DHT22;8441;51.344;7.022;2023-03-14T04:01:18;8.70;99.90
16655;DHT22;8441;51.344;7.022;2023-03-14T04:03:45;8.70;99.90
16655;DHT22;8441;51.344;7.022;2023-03-14T04:06:13;8.70;99.90
16655;DHT22;8441;51.344;7.022;2023-03-14T04:08:41;8.70;99.90
16655;DHT22;8441;51.344;7.022;2023-03-14T04:11:09;8.60;99.90
16655;DHT22;8441;51.344;7.022;2023-03-14T04:13:36;8.60;99.90
16655;DHT22;8441;51.344;7.022;2023-03-14T04:16:08;8.60;99.90
16655;DHT22;8441;51.344;7.022;2023-03-14T04:18:36;8.50;99.90
16655;DHT22;8441;51.344;7.022;2023-03-14T04:21:04;8.50;99.90
16655;DHT22;8441;51.344;7.022;2023-03-14T04:23:32;8.50;99.90
16655;DHT22;8441;51.344;7.022;2023-03-14T04:26:00;8.50;99.90
16655;DHT22;8441;51.344;7.022;2023-03-14T04:28:27;8.50;99.90
16655;DHT22;8441;51.344;7.022;2023-03-14T04:30:54;8.50;99.90
16655;DHT22;8441;51.344;7.022;2023-03-14T04:33:22;8.50;99.90
16655;DHT22;8441;51.344;7.022;2023-03-14T04:35:52;8.50;99.90
16655;DHT22;8441;51.344;7.022;2023-03-14T04:38:20;8.50;99.90
16655;DHT22;8441;51.344;7.022;2023-03-14T04:40:48;8.60;99.90
16655;DHT22;8441;51.344;7.022;2023-03-14T04:43:15;8.60;99.90
16655;DHT22;8441;51.344;7.022;2023-03-14T04:45:43;8.50;99.90
16655;DHT22;8441;51.344;7.022;2023-03-14T04:48:11;8.50;99.90
16655;DHT22;8441;51.344;7.022;2023-03-14T04:50:38;8.50;99.90
16655;DHT22;8441;51.344;7.022;2023-03-14T04:53:05;8.40;99.90
16655;DHT22;8441;51.344;7.022;2023-03-14T04:55:33;8.30;99.90
16655;DHT22;8441;51.344;7.022;2023-03-14T04:58:01;8.20;99.90
16655;DHT22;8441;51.344;7.022;2023-03-14T05:00:29;8.20;99.90
16655;DHT22;8441;51.344;7.022;2023-03-14T05:02:56;8.20;99.90
16655;DHT22;8441;51.344;7.022;2023-03-14T05:05:23;8.10;99.90
16655;DHT22;8441;51.344;7.022;2023-03-14T05:07:50;8.10;99.90
16655;DHT22;8441;51.344;7.022;2023-03-14T05:10:18;8.00;99.90
16655;DHT22;8441;51.344;7.022;2023-03-14T05:12:45;8.00;99.90
16655;DHT22;8441;51.344;7.022;2023-03-14T05:15:13;8.00;99.90
16655;DHT22;8441;51.344;7.022;2023-03-14T05:17:40;8.00;99.90
16655;DHT22;8441;51.344;7.022;2023-03-14T05:20:09;8.00;99.90
16655;DHT22;8441;51.344;7.022;2023-03-14T05:22:38;8.10;99.90
16655;DHT22;8441;51.344;7.022;2023-03-14T05:25:06;8.10;99.90
16655;DHT22;8441;51.344;7.022;2023-03-14T05:27:34;8.10;99.90
16655;DHT22;8441;51.344;7.022;2023-03-14T05:30:02;8.20;99.90
16655;DHT22;8441;51.344;7.022;2023-03-14T05:32:31;8.20;99.90
16655;DHT22;8441;51.344;7.022;2023-03-14T05:34:58;8.30;99.90
16655;DHT22;8441;51.344;7.022;2023-03-14T05:37:25;8.30;99.90
16655;DHT22;8441;51.344;7.022;2023-03-14T05:39:54;8.30;99.90
16655;DHT22;8441;51.344;7.022;2023-03-14T05:42:21;8.30;99.90
16655;DHT22;8441;51.344;7.022;2023-03-14T05:44:48;8.30;99.90
16655;DHT22;8441;51.344;7.022;2023-03-14T05:47:15;8.40;99.90
16655;DHT22;8441;51.344;7.022;2023-03-14T05:49:43;8.30;99.90
16655;DHT22;8441;51.344;7.022;2023-03-14T05:52:10;8.40;99.90
16655;DHT22;8441;51.344;7.022;2023-03-14T05:54:38;8.40;99.90
16655;DHT22;8441;51.344;7.022;2023-03-14T05:57:05;8.40;99.90
16655;DHT22;8441;51.344;7.022;2023-03-14T05:59:32;8.40;99.90
16655;DHT22;8441;51.344;7.022;2023-03-14T06:01:59;8.40;99.90
16655;DHT22;8441;51.344;7.022;2023-03-14T06:04:27;8.40;99.90
16655;DHT22;8441;51.344;7.022;2023-03-14T06:06:55;8.40;99.90
16655;DHT22;8441;51.344;7.022;2023-03-14T06:09:23;8.50;99.90
16655;DHT22;8441;51.344;7.022;2023-03-14T06:11:50;8.50;99.90
16655;DHT22;8441;51.344;7.022;2023-03-14T06:14:17;8.50;99.90
16655;DHT22;8441;51.344;7.022;2023-03-14T06:16:45;8.50;99.90
16655;DHT22;8441;51.344;7.022;2023-03-14T06:19:13;8.50;99.90
16655;DHT22;8441;51.344;7.022;2023-03-14T06:21:40;8.50;99.90
16655;DHT22;8441;51.344;7.022;2023-03-14T06:24:09;8.50;99.90
16655;DHT22;8441;51.344;7.022;2023-03-14T06:26:36;8.60;99.90
16655;DHT22;8441;51.344;7.022;2023-03-14T06:29:03;8.60;99.90
16655;DHT22;8441;51.344;7.022;2023-03-14T06:31:31;8.60;99.90
16655;DHT22;8441;51.344;7.022;2023-03-14T06:33:58;8.60;99.90
16655;DHT22;8441;51.344;7.022;2023-03-14T06:36:25;8.60;99.90
16655;DHT22;8441;51.344;7.022;2023-03-14T06:38:52;8.60;99.90
16655;DHT22;8441;51.344;7.022;2023-03-14T06:41:21;8.60;99.90
16655;DHT22;8441;51.344;7.022;2023-03-14T06:43:49;8.70;99.90
16655;DHT22;8441;51.344;7.022;2023-03-14T06:46:16;8.70;99.90
16655;DHT22;8441;51.344;7.022;2023-03-14T06:48:44;8.70;99.90
16655;DHT22;8441;51.344;7.022;2023-03-14T06:51:11;8.80;99.90
16655;DHT22;8441;51.344;7.022;2023-03-14T06:53:38;8.90;99.90
16655;DHT22;8441;51.344;7.022;2023-03-14T06:56:06;8.90;99.90
16655;DHT22;8441;51.344;7.022;2023-03-14T06:58:35;8.90;99.90
16655;DHT22;8441;51.344;7.022;2023-03-14T07:01:02;8.90;99.90
16655;DHT22;8441;51.344;7.022;2023-03-14T07:03:29;8.90;99.90
16655;DHT22;8441;51.344;7.022;2023-03-14T07:05:57;8.90;99.90
16655;DHT22;8441;51.344;7.022;2023-03-14T07:08:24;8.90;99.90
16655;DHT22;8441;51.344;7.022;2023-03-14T07:10:51;8.90;99.90
16655;DHT22;8441;51.344;7.022;2023-03-14T07:13:18;8.90;99.90
16655;DHT22;8441;51.344;7.022;2023-03-14T07:15:46;9.00;99.90
16655;DHT22;8441;51.344;7.022;2023-03-14T07:18:13;9.00;99.90
16655;DHT22;8441;51.344;7.022;2023-03-14T07:20:41;9.10;99.90
16655;DHT22;8441;51.344;7.022;2023-03-14T07:23:08;9.10;99.90
16655;DHT22;8441;51.344;7.022;2023-03-14T07:25:35;9.10;99.90
16655;DHT22;8441;51.344;7.022;2023-03-14T07:28:02;9.10;99.90
16655;DHT22;8441;51.344;7.022;2023-03-14T07:30:29;9.10;99.90
16655;DHT22;8441;51.344;7.022;2023-03-14T07:32:57;9.20;99.90
16655;DHT22;8441;51.344;7.022;2023-03-14T07:35:25;9.20;99.90
16655;DHT22;8441;51.344;7.022;2023-03-14T07:37:52;9.20;99.90
16655;DHT22;8441;51.344;7.022;2023-03-14T07:40:19;9.20;99.90
16655;DHT22;8441;51.344;7.022;2023-03-14T07:42:46;9.10;99.90
16655;DHT22;8441;51.344;7.022;2023-03-14T07:45:14;9.10;99.90
16655;DHT22;8441;51.344;7.022;2023-03-14T07:47:41;9.10;99.90
16655;DHT22;8441;51.344;7.022;2023-03-14T07:50:10;9.20;99.90
16655;DHT22;8441;51.344;7.022;2023-03-14T07:52:37;9.30;99.90
16655;DHT22;8441;51.344;7.022;2023-03-14T07:55:05;9.20;99.90
16655;DHT22;8441;51.344;7.022;2023-03-14T07:57:32;9.30;99.90
16655;DHT22;8441;51.344;7.022;2023-03-14T08:00:00;9.30;99.90
16655;DHT22;8441;51.344;7.022;2023-03-14T08:02:27;9.30;99.90
16655;DHT22;8441;51.344;7.022;2023-03-14T08:04:54;9.40;99.90
16655;DHT22;8441;51.344;7.022;2023-03-14T08:07:22;9.50;99.90
16655;DHT22;8441;51.344;7.022;2023-03-14T08:09:49;9.50;99.90
16655;DHT22;8441;51.344;7.022;2023-03-14T08:12:16;9.50;99.90
16655;DHT22;8441;51.344;7.022;2023-03-14T08:14:44;9.60;99.90
16655;DHT22;8441;51.344;7.022;2023-03-14T08:17:11;9.60;99.90
16655;DHT22;8441;51.344;7.022;2023-03-14T08:19:38;9.80;99.90
16655;DHT22;8441;51.344;7.022;2023-03-14T08:22:05;9.80;99.90
16655;DHT22;8441;51.344;7.022;2023-03-14T08:24:34;9.90;99.90
16655;DHT22;8441;51.344;7.022;2023-03-14T08:27:01;9.90;99.90
16655;DHT22;8441;51.344;7.022;2023-03-14T08:29:28;10.10;99.90
16655;DHT22;8441;51.344;7.022;2023-03-14T08:31:55;10.10;99.90
16655;DHT22;8441;51.344;7.022;2023-03-14T08:34:22;10.10;99.90
16655;DHT22;8441;51.344;7.022;2023-03-14T08:36:49;10.20;99.90
16655;DHT22;8441;51.344;7.022;2023-03-14T08:39:17;10.20;99.90
16655;DHT22;8441;51.344;7.022;2023-03-14T08:41:45;10.20;99.90
16655;DHT22;8441;51.344;7.022;2023-03-14T08:44:12;10.30;99.90
16655;DHT22;8441;51.344;7.022;2023-03-14T08:46:40;10.20;99.90
16655;DHT22;8441;51.344;7.022;2023-03-14T08:49:07;10.30;99.90
16655;DHT22;8441;51.344;7.022;2023-03-14T08:51:34;10.40;99.90
16655;DHT22;8441;51.344;7.022;2023-03-14T08:54:01;10.50;99.90
16655;DHT22;8441;51.344;7.022;2023-03-14T08:56:28;10.50;99.90
16655;DHT22;8441;51.344;7.022;2023-03-14T08:58:57;10.50;99.90
16655;DHT22;8441;51.344;7.022;2023-03-14T09:01:24;10.50;99.90
16655;DHT22;8441;51.344;7.022;2023-03-14T09:03:51;10.40;99.90
16655;DHT22;8441;51.344;7.022;2023-03-14T09:06:19;10.30;99.90
16655;DHT22;8441;51.344;7.022;2023-03-14T09:08:46;10.20;99.90
16655;DHT22;8441;51.344;7.022;2023-03-14T09:11:13;10.10;99.90
16655;DHT22;8441;51.344;7.022;2023-03-14T09:13:40;10.00;99.90
16655;DHT22;8441;51.344;7.022;2023-03-14T09:16:09;9.90;99.90
16655;DHT22;8441;51.344;7.022;2023-03-14T09:18:36;9.80;99.90
16655;DHT22;8441;51.344;7.022;2023-03-14T09:21:04;9.90;99.90
16655;DHT22;8441;51.344;7.022;2023-03-14T09:23:31;9.90;99.90
16655;DHT22;8441;51.344;7.022;2023-03-14T09:25:59;10.00;99.90
16655;DHT22;8441;51.344;7.022;2023-03-14T09:28:27;10.00;99.90
16655;DHT22;8441;51.344;7.022;2023-03-14T09:30:56;10.00;99.90
16655;DHT22;8441;51.344;7.022;2023-03-14T09:33:25;10.00;99.90
16655;DHT22;8441;51.344;7.022;2023-03-14T09:35:52;9.90;99.90
16655;DHT22;8441;51.344;7.022;2023-03-14T09:38:19;9.70;99.90
16655;DHT22;8441;51.344;7.022;2023-03-14T09:40:47;9.10;99.90
16655;DHT22;8441;51.344;7.022;2023-03-14T09:43:15;8.70;99.90
16655;DHT22;8441;51.344;7.022;2023-03-14T09:45:44;8.50;99.90
16655;DHT22;8441;51.344;7.022;2023-03-14T09:48:16;8.30;99.90
16655;DHT22;8441;51.344;7.022;2023-03-14T09:50:48;8.20;99.90
16655;DHT22;8441;51.344;7.022;2023-03-14T09:53:18;8.10;99.90
16655;DHT22;8441;51.344;7.022;2023-03-14T09:55:47;8.10;99.90
16655;DHT22;8441;51.344;7.022;2023-03-14T09:58:19;8.10;99.90
16655;DHT22;8441;51.344;7.022;2023-03-14T10:00:47;8.00;99.90
16655;DHT22;8441;51.344;7.022;2023-03-14T10:03:25;7.90;99.90
16655;DHT22;8441;51.344;7.022;2023-03-14T10:05:55;7.80;99.90
16655;DHT22;8441;51.344;7.022;2023-03-14T10:08:22;7.80;99.90
16655;DHT22;8441;51.344;7.022;2023-03-14T10:10:50;7.80;99.90
16655;DHT22;8441;51.344;7.022;2023-03-14T10:13:19;7.70;99.90
16655;DHT22;8441;51.344;7.022;2023-03-14T10:15:52;7.70;99.90
16655;DHT22;8441;51.344;7.022;2023-03-14T10:18:21;7.60;99.90
16655;DHT22;8441;51.344;7.022;2023-03-14T10:21:00;7.60;99.90
16655;DHT22;8441;51.344;7.022;2023-03-14T10:23:31;7.50;99.90
16655;DHT22;8441;51.344;7.022;2023-03-14T10:26:05;7.50;99.90
16655;DHT22;8441;51.344;7.022;2023-03-14T10:28:34;7.50;99.90
16655;DHT22;8441;51.344;7.022;2023-03-14T10:31:04;7.40;99.90
16655;DHT22;8441;51.344;7.022;2023-03-14T10:33:33;7.40;99.90
16655;DHT22;8441;51.344;7.022;2023-03-14T10:36:02;7.40;99.90
16655;DHT22;8441;51.344;7.022;2023-03-14T10:38:33;7.40;99.90
16655;DHT22;8441;51.344;7.022;2023-03-14T10:41:02;7.50;99.90
16655;DHT22;8441;51.344;7.022;2023-03-14T10:43:40;7.60;99.90
16655;DHT22;8441;51.344;7.022;2023-03-14T10:46:10;7.60;99.90
16655;DHT22;8441;51.344;7.022;2023-03-14T10:48:39;7.60;99.90
16655;DHT22;8441;51.344;7.022;2023-03-14T10:51:10;7.50;99.90
16655;DHT22;8441;51.344;7.022;2023-03-14T10:53:43;7.40;99.90
16655;DHT22;8441;51.344;7.022;2023-03-14T10:56:15;7.20;99.90
16655;DHT22;8441;51.344;7.022;2023-03-14T10:58:44;7.00;99.90
16655;DHT22;8441;51.344;7.022;2023-03-14T11:01:36;6.80;99.90
16655;DHT22;8441;51.344;7.022;2023-03-14T11:04:14;6.70;99.90
16655;DHT22;8441;51.344;7.022;2023-03-14T11:06:49;6.70;99.90
16655;DHT22;8441;51.344;7.022;2023-03-14T11:09:24;6.40;99.90
16655;DHT22;8441;51.344;7.022;2023-03-14T11:11:54;6.10;99.90
16655;DHT22;8441;51.344;7.022;2023-03-14T11:14:29;6.10;99.90
16655;DHT22;8441;51.344;7.022;2023-03-14T11:17:04;6.20;99.90
16655;DHT22;8441;51.344;7.022;2023-03-14T11:19:49;6.30;99.90
16655;DHT22;8441;51.344;7.022;2023-03-14T11:22:30;6.50;99.90
16655;DHT22;8441;51.344;7.022;2023-03-14T11:25:18;6.50;99.90
16655;DHT22;8441;51.344;7.022;2023-03-14T11:27:54;6.70;99.90
16655;DHT22;8441;51.344;7.022;2023-03-14T11:30:29;6.70;99.90
16655;DHT22;8441;51.344;7.022;2023-03-14T11:33:04;6.70;99.90
16655;DHT22;8441;51.344;7.022;2023-03-14T11:35:38;6.60;99.90
16655;DHT22;8441;51.344;7.022;2023-03-14T11:38:14;6.50;99.90
16655;DHT22;8441;51.344;7.022;2023-03-14T11:40:45;6.70;99.90
16655;DHT22;8441;51.344;7.022;2023-03-14T11:43:17;6.70;99.90
16655;DHT22;8441;51.344;7.022;2023-03-14T11:45:48;6.70;99.90
16655;DHT22;8441;51.344;7.022;2023-03-14T11:48:24;6.80;99.90
16655;DHT22;8441;51.344;7.022;2023-03-14T11:50:54;7.00;99.90
16655;DHT22;8441;51.344;7.022;2023-03-14T11:53:33;7.00;99.90
16655;DHT22;8441;51.344;7.022;2023-03-14T11:56:04;6.90;99.90
16655;DHT22;8441;51.344;7.022;2023-03-14T11:58:35;6.90;99.90
16655;DHT22;8441;51.344;7.022;2023-03-14T12:01:09;6.80;99.90
16655;DHT22;8441;51.344;7.022;2023-03-14T12:03:42;6.60;99.90
16655;DHT22;8441;51.344;7.022;2023-03-14T12:06:18;6.50;99.90
16655;DHT22;8441;51.344;7.022;2023-03-14T12:08:49;6.30;99.90
16655;DHT22;8441;51.344;7.022;2023-03-14T12:11:31;6.20;99.90
16655;DHT22;8441;51.344;7.022;2023-03-14T12:14:00;6.20;99.90
16655;DHT22;8441;51.344;7.022;2023-03-14T12:16:33;6.10;99.90
16655;DHT22;8441;51.344;7.022;2023-03-14T12:19:32;6.20;99.90
16655;DHT22;8441;51.344;7.022;2023-03-14T12:24:47;6.30;99.90
16655;DHT22;8441;51.344;7.022;2023-03-14T12:27:45;6.40;99.90
16655;DHT22;8441;51.344;7.022;2023-03-14T12:30:27;6.60;99.90
16655;DHT22;8441;51.344;7.022;2023-03-14T12:36:11;7.30;99.90
16655;DHT22;8441;51.344;7.022;2023-03-14T12:38:59;7.50;99.90
16655;DHT22;8441;51.344;7.022;2023-03-14T12:41:34;7.50;99.90
16655;DHT22;8441;51.344;7.022;2023-03-14T12:50:19;8.00;99.90
16655;DHT22;8441;51.344;7.022;2023-03-14T12:56:01;7.60;99.90
16655;DHT22;8441;51.344;7.022;2023-03-14T12:58:34;7.40;99.90
16655;DHT22;8441;51.344;7.022;2023-03-14T13:01:05;7.20;99.90
16655;DHT22;8441;51.344;7.022;2023-03-14T13:03:40;7.00;99.90
16655;DHT22;8441;51.344;7.022;2023-03-14T13:06:12;6.70;99.90
16655;DHT22;8441;51.344;7.022;2023-03-14T13:08:40;6.40;99.90
16655;DHT22;8441;51.344;7.022;2023-03-14T13:11:10;6.10;99.90
16655;DHT22;8441;51.344;7.022;2023-03-14T13:13:44;5.80;99.90
16655;DHT22;8441;51.344;7.022;2023-03-14T13:16:15;5.80;99.90
16655;DHT22;8441;51.344;7.022;2023-03-14T13:18:44;5.80;99.90
16655;DHT22;8441;51.344;7.022;2023-03-14T13:21:16;5.90;99.90
16655;DHT22;8441;51.344;7.022;2023-03-14T13:23:56;6.10;99.90
16655;DHT22;8441;51.344;7.022;2023-03-14T13:26:31;6.30;99.90
16655;DHT22;8441;51.344;7.022;2023-03-14T13:28:59;6.50;99.90
16655;DHT22;8441;51.344;7.022;2023-03-14T13:31:26;6.50;99.90
16655;DHT22;8441;51.344;7.022;2023-03-14T13:34:00;6.40;99.90
16655;DHT22;8441;51.344;7.022;2023-03-14T13:36:28;6.20;99.90
16655;DHT22;8441;51.344;7.022;2023-03-14T13:38:57;6.10;99.90
16655;DHT22;8441;51.344;7.022;2023-03-14T13:41:25;6.10;99.90
16655;DHT22;8441;51.344;7.022;2023-03-14T13:44:02;5.80;99.90
16655;DHT22;8441;51.344;7.022;2023-03-14T13:46:30;5.60;99.90
16655;DHT22;8441;51.344;7.022;2023-03-14T13:49:02;5.70;99.90
16655;DHT22;8441;51.344;7.022;2023-03-14T13:51:32;5.70;99.90
16655;DHT22;8441;51.344;7.022;2023-03-14T13:54:00;5.90;99.90
16655;DHT22;8441;51.344;7.022;2023-03-14T13:56:30;6.10;99.90
16655;DHT22;8441;51.344;7.022;2023-03-14T13:58:57;6.30;99.90
16655;DHT22;8441;51.344;7.022;2023-03-14T14:01:27;6.40;99.90
16655;DHT22;8441;51.344;7.022;2023-03-14T14:03:58;6.50;99.90
16655;DHT22;8441;51.344;7.022;2023-03-14T14:06:32;6.60;99.90
16655;DHT22;8441;51.344;7.022;2023-03-14T14:09:02;6.70;99.90
16655;DHT22;8441;51.344;7.022;2023-03-14T14:11:41;6.70;99.90
16655;DHT22;8441;51.344;7.022;2023-03-14T14:14:11;6.80;99.90
16655;DHT22;8441;51.344;7.022;2023-03-14T14:16:39;6.90;99.90
16655;DHT22;8441;51.344;7.022;2023-03-14T14:19:06;6.80;99.90
16655;DHT22;8441;51.344;7.022;2023-03-14T14:21:35;6.80;99.90
16655;DHT22;8441;51.344;7.022;2023-03-14T14:24:03;7.00;99.90
16655;DHT22;8441;51.344;7.022;2023-03-14T14:26:32;7.10;99.90
16655;DHT22;8441;51.344;7.022;2023-03-14T14:29:01;7.20;99.90
16655;DHT22;8441;51.344;7.022;2023-03-14T14:31:29;7.30;99.90
16655;DHT22;8441;51.344;7.022;2023-03-14T14:33:57;7.40;99.90
16655;DHT22;8441;51.344;7.022;2023-03-14T14:36:27;7.40;99.90
16655;DHT22;8441;51.344;7.022;2023-03-14T14:39:00;7.40;99.90
16655;DHT22;8441;51.344;7.022;2023-03-14T14:41:31;7.40;99.90
16655;DHT22;8441;51.344;7.022;2023-03-14T14:44:03;7.50;99.90
16655;DHT22;8441;51.344;7.022;2023-03-14T14:46:32;7.50;99.90
16655;DHT22;8441;51.344;7.022;2023-03-14T14:49:03;7.20;99.90
16655;DHT22;8441;51.344;7.022;2023-03-14T14:51:34;7.00;99.90
16655;DHT22;8441;51.344;7.022;2023-03-14T14:54:14;6.90;99.90
16655;DHT22;8441;51.344;7.022;2023-03-14T14:56:47;6.90;99.90
16655;DHT22;8441;51.344;7.022;2023-03-14T14:59:24;6.70;99.90
16655;DHT22;8441;51.344;7.022;2023-03-14T15:01:56;6.60;99.90
16655;DHT22;8441;51.344;7.022;2023-03-14T15:04:25;6.60;99.90
16655;DHT22;8441;51.344;7.022;2023-03-14T15:06:52;6.50;99.90
16655;DHT22;8441;51.344;7.022;2023-03-14T15:09:21;6.60;99.90
16655;DHT22;8441;51.344;7.022;2023-03-14T15:11:49;6.60;99.90
16655;DHT22;8441;51.344;7.022;2023-03-14T15:14:16;6.60;99.90
16655;DHT22;8441;51.344;7.022;2023-03-14T15:16:43;6.70;99.90
16655;DHT22;8441;51.344;7.022;2023-03-14T15:19:19;6.70;99.90
16655;DHT22;8441;51.344;7.022;2023-03-14T15:21:46;6.80;99.90
16655;DHT22;8441;51.344;7.022;2023-03-14T15:24:14;6.90;99.90
16655;DHT22;8441;51.344;7.022;2023-03-14T15:26:42;6.90;99.90
16655;DHT22;8441;51.344;7.022;2023-03-14T15:29:11;7.00;99.90
16655;DHT22;8441;51.344;7.022;2023-03-14T15:31:39;7.10;99.90
16655;DHT22;8441;51.344;7.022;2023-03-14T15:34:06;7.10;99.90
16655;DHT22;8441;51.344;7.022;2023-03-14T15:36:34;7.10;99.90
16655;DHT22;8441;51.344;7.022;2023-03-14T15:39:03;7.10;99.90
16655;DHT22;8441;51.344;7.022;2023-03-14T15:41:31;7.00;99.90
16655;DHT22;8441;51.344;7.022;2023-03-14T15:44:00;6.90;99.90
16655;DHT22;8441;51.344;7.022;2023-03-14T15:46:27;6.80;99.90
16655;DHT22;8441;51.344;7.022;2023-03-14T15:48:54;6.70;99.90
16655;DHT22;8441;51.344;7.022;2023-03-14T15:51:21;6.70;99.90
16655;DHT22;8441;51.344;7.022;2023-03-14T15:53:48;6.60;99.90
16655;DHT22;8441;51.344;7.022;2023-03-14T15:56:20;6.50;99.90
16655;DHT22;8441;51.344;7.022;2023-03-14T15:58:51;6.50;99.90
16655;DHT22;8441;51.344;7.022;2023-03-14T16:01:19;6.50;99.90
16655;DHT22;8441;51.344;7.022;2023-03-14T16:03:46;6.40;99.90
16655;DHT22;8441;51.344;7.022;2023-03-14T16:06:14;6.40;99.90
16655;DHT22;8441;51.344;7.022;2023-03-14T16:08:42;6.40;99.90
16655;DHT22;8441;51.344;7.022;2023-03-14T16:11:10;6.40;99.90
16655;DHT22;8441;51.344;7.022;2023-03-14T16:13:37;6.40;99.90
16655;DHT22;8441;51.344;7.022;2023-03-14T16:16:05;6.40;99.90
16655;DHT22;8441;51.344;7.022;2023-03-14T16:18:36;6.40;99.90
16655;DHT22;8441;51.344;7.022;2023-03-14T16:21:05;6.30;99.90
16655;DHT22;8441;51.344;7.022;2023-03-14T16:23:33;6.30;99.90
16655;DHT22;8441;51.344;7.022;2023-03-14T16:26:04;6.30;99.90
16655;DHT22;8441;51.344;7.022;2023-03-14T16:28:31;6.20;99.90